Time;durP1;ratioP1;P1;durP2;ratioP2;P2;SDS_P1;SDS_P2;PMS_P1;PMS_P2;Temp;Humidity;BMP_temperature;BMP_pressure;BME280_temperature;BME280_humidity;BME280_pressure;Samples;Min_cycle;Max_cycle;Signal;HPM_P1;HPM_P2
2022/05/18 00:02:13;;;;;;;1.83;1.03;;;;;;;10.96;48.86;101553.59;1766521;81;22125;-79
2022/05/18 00:04:40;;;;;;;3.67;1.40;;;;;;;10.96;48.80;101558.84;1766118;81;20924;-79
2022/05/18 00:07:07;;;;;;;3.20;1.20;;;;;;;10.94;48.91;101554.92;1766180;81;21074;-79
2022/05/18 00:09:35;;;;;;;4.47;1.50;;;;;;;10.92;48.81;101560.67;1766591;81;21531;-82
2022/05/18 00:12:04;;;;;;;3.93;1.37;;;;;;;10.90;48.77;101565.07;1766612;81;21413;-83
2022/05/18 00:14:31;;;;;;;3.83;1.13;;;;;;;10.90;48.92;101566.84;1766326;81;22248;-83
2022/05/18 00:17:03;;;;;;;2.33;1.00;;;;;;;10.85;48.80;101566.06;1766486;81;21031;-82
2022/05/18 00:19:27;;;;;;;4.93;1.50;;;;;;;10.77;49.11;101566.20;1766250;81;21098;-79
2022/05/18 00:21:54;;;;;;;3.63;1.10;;;;;;;10.65;48.99;101564.68;1766670;81;21114;-79
2022/05/18 00:24:21;;;;;;;2.23;1.10;;;;;;;10.60;49.18;101568.28;1766318;81;21059;-79
2022/05/18 00:26:48;;;;;;;1.80;1.13;;;;;;;10.54;49.05;101569.71;1766663;81;21118;-83
2022/05/18 00:29:16;;;;;;;6.43;1.30;;;;;;;10.45;49.07;101571.61;1766324;81;21047;-78
2022/05/18 00:31:43;;;;;;;3.97;1.20;;;;;;;10.42;49.20;101575.59;1766689;81;21004;-83
2022/05/18 00:34:10;;;;;;;2.93;1.00;;;;;;;10.37;49.33;101576.57;1766338;81;21051;-83
2022/05/18 00:36:37;;;;;;;4.77;1.40;;;;;;;10.32;49.48;101575.78;1766363;81;21533;-82
2022/05/18 00:39:05;;;;;;;4.53;1.43;;;;;;;10.24;49.70;101582.42;1766465;81;21139;-83
2022/05/18 00:41:32;;;;;;;2.47;1.17;;;;;;;10.17;49.66;101586.91;1766266;81;21023;-83
2022/05/18 00:44:00;;;;;;;3.83;1.37;;;;;;;10.12;49.71;101586.11;1764406;81;21075;-83
2022/05/18 00:46:27;;;;;;;4.47;1.10;;;;;;;10.04;49.93;101589.30;1755585;81;21609;-83
2022/05/18 00:48:54;;;;;;;3.07;1.27;;;;;;;9.95;50.22;101588.11;1755526;81;21004;-82
2022/05/18 00:51:36;;;;;;;3.50;1.70;;;;;;;9.86;50.30;101592.19;1755577;81;21235;-79
2022/05/18 00:54:26;;;;;;;2.63;1.27;;;;;;;9.75;50.51;101590.58;1755443;81;20992;-82
2022/05/18 00:57:17;;;;;;;4.00;1.15;;;;;;;9.64;50.92;101594.25;1755884;81;21244;-83
2022/05/18 00:59:47;;;;;;;;;;;;;;;9.53;51.22;101599.21;1758477;81;21039;-80
2022/05/18 01:02:15;;;;;;;1.70;1.10;;;;;;;9.45;51.42;101598.45;1755953;81;21347;-83
2022/05/18 01:04:45;;;;;;;3.20;1.20;;;;;;;9.37;51.59;101606.84;1755601;81;21028;-81
2022/05/18 01:07:23;;;;;;;4.58;1.27;;;;;;;9.26;51.70;101622.66;1756026;81;21066;-80
2022/05/18 01:09:50;;;;;;;4.40;1.30;;;;;;;9.17;51.77;101622.75;1755429;81;21497;-81
2022/05/18 01:12:20;;;;;;;2.53;1.10;;;;;;;9.06;51.59;101625.94;1755869;81;21024;-83
2022/05/18 01:14:53;;;;;;;3.63;1.50;;;;;;;8.95;51.98;101631.28;1755465;81;21505;-83
2022/05/18 01:17:30;;;;;;;3.60;1.20;;;;;;;8.83;51.97;101628.36;1755627;81;21529;-82
2022/05/18 01:20:00;;;;;;;5.60;1.63;;;;;;;8.73;52.06;101634.99;1755558;81;21526;-80
2022/05/18 01:22:52;;;;;;;3.42;1.35;;;;;;;8.58;52.28;101634.70;1755634;81;21035;-83
2022/05/18 01:25:50;;;;;;;2.73;1.50;;;;;;;8.46;52.56;101635.24;1755590;81;21000;-83
2022/05/18 01:28:18;;;;;;;3.90;1.50;;;;;;;8.32;53.05;101640.99;1755430;81;21102;-79
2022/05/18 01:30:48;;;;;;;3.40;1.37;;;;;;;8.19;53.41;101648.05;1755571;81;21110;-79
2022/05/18 01:33:18;;;;;;;3.60;1.42;;;;;;;8.09;53.78;101642.89;1755611;81;20916;-79
2022/05/18 01:35:48;;;;;;;3.87;1.50;;;;;;;7.98;54.05;101645.56;1755913;81;21024;-79
2022/05/18 01:38:17;;;;;;;3.63;1.60;;;;;;;7.86;54.40;101648.27;1755543;81;20960;-79
2022/05/18 01:41:16;;;;;;;6.03;1.70;;;;;;;7.77;54.42;101650.05;1755734;81;21008;-79
2022/05/18 01:43:51;;;;;;;5.10;1.43;;;;;;;7.69;54.55;101653.14;1755636;81;21115;-80
2022/05/18 01:46:20;;;;;;;4.83;1.60;;;;;;;7.60;54.76;101657.97;1766125;81;21023;-83
2022/05/18 01:48:50;;;;;;;4.07;1.70;;;;;;;7.48;54.97;101665.86;1766241;81;21011;-83
2022/05/18 01:51:29;;;;;;;4.23;1.43;;;;;;;7.37;55.33;101671.12;1766562;81;21031;-83
2022/05/18 01:53:56;;;;;;;2.93;1.47;;;;;;;7.28;55.63;101678.95;1766410;81;21541;-82
2022/05/18 01:56:23;;;;;;;2.07;1.40;;;;;;;7.17;56.00;101678.55;1766510;81;21952;-83
2022/05/18 01:58:50;;;;;;;2.77;1.53;;;;;;;7.10;56.05;101688.14;1766188;81;21507;-82
2022/05/18 02:01:20;;;;;;;7.43;1.70;;;;;;;7.01;56.52;101686.84;1766482;81;21572;-82
2022/05/18 02:03:48;;;;;;;2.27;1.42;;;;;;;6.96;56.72;101689.91;1766358;81;21094;-83
2022/05/18 02:06:16;;;;;;;4.63;1.63;;;;;;;6.86;57.00;101693.81;1766474;81;21563;-83
2022/05/18 02:08:43;;;;;;;3.70;1.60;;;;;;;6.84;57.36;101690.33;1766223;81;21076;-79
2022/05/18 02:11:12;;;;;;;4.43;1.70;;;;;;;6.81;57.61;101689.03;1766449;81;21019;-82
2022/05/18 02:13:40;;;;;;;2.93;1.63;;;;;;;6.81;57.81;101693.38;1766285;81;21606;-82
2022/05/18 02:16:08;;;;;;;3.90;1.50;;;;;;;6.75;58.15;101686.88;1766460;81;21078;-81
2022/05/18 02:18:35;;;;;;;4.80;2.37;;;;;;;6.71;58.36;101691.23;1766406;81;21221;-82
2022/05/18 02:21:08;;;;;;;3.73;1.53;;;;;;;6.68;58.71;101691.23;1765926;81;22273;-81
2022/05/18 02:23:38;;;;;;;2.57;1.50;;;;;;;6.69;58.94;101694.27;1735760;81;21052;-80
2022/05/18 02:26:08;;;;;;;7.10;1.40;;;;;;;6.70;59.25;101693.39;1732994;82;21561;-83
2022/05/18 02:28:36;;;;;;;5.30;1.90;;;;;;;6.68;59.35;101696.01;1732791;82;21012;-83
2022/05/18 02:31:04;;;;;;;3.87;1.57;;;;;;;6.67;59.53;101699.91;1732911;82;21000;-82
2022/05/18 02:33:31;;;;;;;3.63;1.80;;;;;;;6.59;59.54;101695.98;1732915;82;21167;-83
2022/05/18 02:35:58;;;;;;;5.47;1.37;;;;;;;6.48;59.61;101699.02;1732858;82;21020;-82
2022/05/18 02:38:25;;;;;;;4.20;1.33;;;;;;;6.44;59.90;101704.67;1733161;82;21019;-82
2022/05/18 02:40:54;;;;;;;3.47;1.70;;;;;;;6.38;60.04;101713.79;1733048;82;21039;-81
2022/05/18 02:43:21;;;;;;;5.27;1.47;;;;;;;6.30;60.11;101708.14;1733049;82;21474;-83
2022/05/18 02:45:49;;;;;;;5.67;1.90;;;;;;;6.23;60.42;101712.45;1715378;82;21131;-82
2022/05/18 02:48:16;;;;;;;4.73;1.40;;;;;;;6.18;60.62;101715.06;1704905;84;21546;-79
2022/05/18 02:50:47;;;;;;;3.63;1.30;;;;;;;6.11;60.68;101714.59;1704865;84;21064;-84
2022/05/18 02:53:12;;;;;;;3.20;1.80;;;;;;;6.09;61.02;101715.45;1704853;84;21044;-79
2022/05/18 02:58:25;;;;;;;4.20;1.40;;;;;;;6.00;61.08;101722.38;1704978;84;21506;-79
2022/05/18 03:00:53;;;;;;;3.90;1.50;;;;;;;5.96;61.17;101720.64;1704836;84;21060;-83
2022/05/18 03:03:19;;;;;;;2.90;1.73;;;;;;;5.90;61.12;101727.07;1704958;84;21580;-80
2022/05/18 03:05:47;;;;;;;4.57;1.40;;;;;;;5.87;61.33;101732.27;1704883;84;21237;-81
2022/05/18 03:08:14;;;;;;;5.17;1.50;;;;;;;5.82;61.54;101728.80;1705105;84;21282;-80
2022/05/18 03:10:41;;;;;;;2.43;1.50;;;;;;;5.80;61.67;101729.23;1704856;84;22147;-82
2022/05/18 03:13:10;;;;;;;5.57;1.53;;;;;;;5.77;61.93;101725.31;1704703;84;21100;-83
2022/05/18 03:15:37;;;;;;;3.27;1.67;;;;;;;5.77;62.18;101727.48;1704899;84;21064;-82
2022/05/18 03:18:04;;;;;;;3.57;1.70;;;;;;;5.77;62.19;101726.61;1704924;84;21462;-83
2022/05/18 03:23:36;;;;;;;2.93;1.60;;;;;;;5.81;62.62;101734.41;1705028;84;21778;-78
2022/05/18 03:26:14;;;;;;;3.97;1.60;;;;;;;5.91;62.68;101738.37;1704908;84;20997;-79
2022/05/18 03:28:45;;;;;;;3.67;1.83;;;;;;;5.92;62.02;101742.27;1704917;84;20992;-80
2022/05/18 03:31:13;;;;;;;2.57;1.50;;;;;;;5.88;61.88;101745.73;1704994;84;21065;-82
2022/05/18 03:33:40;;;;;;;2.60;1.47;;;;;;;5.83;61.56;101744.84;1704941;84;21526;-82
2022/05/18 03:36:12;;;;;;;2.90;1.63;;;;;;;5.80;61.75;101752.20;1704769;84;21598;-81
2022/05/18 03:38:40;;;;;;;2.97;1.50;;;;;;;5.78;61.93;101755.22;1705177;84;21068;-83
2022/05/18 03:41:08;;;;;;;4.70;1.80;;;;;;;5.77;62.02;101754.80;1711324;82;21063;-82
2022/05/18 03:43:35;;;;;;;3.80;1.77;;;;;;;5.76;62.24;101755.67;1730059;82;21450;-79
2022/05/18 03:46:04;;;;;;;3.80;1.77;;;;;;;5.76;62.45;101759.98;1731240;81;21055;-82
2022/05/18 03:48:32;;;;;;;3.93;1.63;;;;;;;5.79;62.49;101766.49;1750893;81;21178;-82
2022/05/18 03:51:03;;;;;;;2.57;1.53;;;;;;;5.82;62.37;101758.73;1750866;81;21015;-79
2022/05/18 03:53:31;;;;;;;6.13;1.67;;;;;;;5.85;62.42;101763.94;1751015;81;21067;-80
2022/05/18 03:55:59;;;;;;;3.27;1.90;;;;;;;5.90;62.50;101769.14;1751065;81;21052;-83
2022/05/18 03:58:26;;;;;;;5.73;1.57;;;;;;;5.93;62.68;101770.45;1774567;80;21710;-80
2022/05/18 04:00:55;;;;;;;4.23;1.50;;;;;;;5.96;62.50;101770.09;1735250;81;22012;-81
2022/05/18 04:03:26;;;;;;;3.33;1.50;;;;;;;6.01;62.55;101770.09;1743755;81;21056;-78
2022/05/18 04:05:53;;;;;;;;;;;;;;;6.10;62.68;101777.09;1784728;80;21473;-81
2022/05/18 04:08:21;;;;;;;3.57;1.53;;;;;;;6.18;62.82;101785.77;1780906;80;20501;-79
2022/05/18 04:10:48;;;;;;;4.30;1.70;;;;;;;6.24;62.57;101782.77;1762348;80;21090;-79
2022/05/18 04:13:20;;;;;;;3.20;1.40;;;;;;;6.33;62.53;101779.31;1748641;81;21446;-82
2022/05/18 04:15:48;;;;;;;6.57;1.77;;;;;;;6.42;62.61;101779.77;1762194;80;21005;-82
2022/05/18 04:18:15;;;;;;;3.43;1.70;;;;;;;6.51;62.73;101784.98;1748167;80;21012;-82
2022/05/18 04:20:43;;;;;;;3.07;1.83;;;;;;;6.68;62.66;101785.04;1765752;80;21043;-82
2022/05/18 04:23:11;;;;;;;3.77;1.90;;;;;;;6.79;62.42;101784.61;1763800;80;21268;-82
2022/05/18 04:25:41;;;;;;;5.97;1.97;;;;;;;6.95;62.19;101781.99;1764640;80;21201;-79
2022/05/18 04:28:13;;;;;;;4.03;1.97;;;;;;;7.06;61.96;101784.16;1755181;80;21051;-81
2022/05/18 04:30:38;;;;;;;3.73;1.87;;;;;;;7.21;61.59;101784.61;1760912;80;20993;-81
2022/05/18 04:33:06;;;;;;;3.67;2.17;;;;;;;7.35;61.62;101788.92;1763537;81;21021;-80
2022/05/18 04:35:33;;;;;;;6.37;1.80;;;;;;;7.47;61.39;101793.69;1763226;81;20997;-80
2022/05/18 04:38:00;;;;;;;3.93;1.83;;;;;;;7.58;61.18;101795.39;1763442;81;21115;-80
2022/05/18 04:40:29;;;;;;;7.07;3.07;;;;;;;7.70;61.07;101794.92;1763298;81;21056;-80
2022/05/18 04:42:56;;;;;;;4.80;1.60;;;;;;;7.80;60.79;101790.13;1763172;81;21016;-80
2022/05/18 04:45:25;;;;;;;5.63;1.93;;;;;;;7.92;60.62;101795.28;1763257;81;21716;-79
2022/05/18 04:47:52;;;;;;;5.40;1.80;;;;;;;8.02;60.24;101785.69;1763170;81;21586;-79
2022/05/18 04:50:20;;;;;;;6.70;1.80;;;;;;;8.10;60.12;101787.83;1763350;81;21792;-79
2022/05/18 04:52:48;;;;;;;4.30;1.70;;;;;;;8.20;60.16;101783.00;1763083;81;21032;-80
2022/05/18 04:55:15;;;;;;;4.23;1.80;;;;;;;8.29;59.75;101783.39;1763305;81;22338;-80
2022/05/18 04:57:42;;;;;;;4.93;1.80;;;;;;;8.38;59.60;101782.46;1763087;81;21032;-80
2022/05/18 05:00:13;;;;;;;4.37;1.80;;;;;;;8.46;59.26;101785.94;1763310;81;21039;-78
2022/05/18 05:02:41;;;;;;;3.63;1.50;;;;;;;8.52;58.89;101785.89;1763342;81;21201;-79
2022/05/18 05:05:11;;;;;;;7.77;1.67;;;;;;;8.61;58.73;101792.80;1763292;81;21632;-80
2022/05/18 05:07:39;;;;;;;3.63;1.53;;;;;;;8.68;58.60;101790.58;1763034;80;21059;-79
2022/05/18 05:10:07;;;;;;;4.50;1.90;;;;;;;8.78;58.47;101796.16;1763086;81;21068;-80
2022/05/18 05:12:35;;;;;;;4.67;1.80;;;;;;;8.84;58.03;101797.44;1753689;80;21011;-79
2022/05/18 05:15:03;;;;;;;4.70;1.63;;;;;;;8.92;57.93;101801.28;1741599;80;21757;-79
2022/05/18 05:17:30;;;;;;;4.13;1.80;;;;;;;9.01;57.87;101799.06;1755187;80;21078;-79
2022/05/18 05:19:59;;;;;;;4.87;1.80;;;;;;;9.09;57.53;101799.42;1764189;80;21286;-79
2022/05/18 05:22:27;;;;;;;2.73;1.63;;;;;;;9.15;57.17;101796.74;1766062;80;20974;-78
2022/05/18 05:24:54;;;;;;;5.97;2.07;;;;;;;9.23;57.18;101801.91;1763709;80;21043;-79
2022/05/18 05:27:21;;;;;;;3.60;1.63;;;;;;;9.32;57.16;101798.34;1754263;80;21263;-79
2022/05/18 05:29:48;;;;;;;5.57;1.90;;;;;;;9.41;57.05;101803.92;1764968;80;21513;-80
2022/05/18 05:32:15;;;;;;;4.77;1.60;;;;;;;9.48;56.51;101805.16;1766259;80;21544;-79
2022/05/18 05:34:42;;;;;;;3.70;1.67;;;;;;;9.56;56.40;101803.33;1766597;81;21543;-79
2022/05/18 05:37:10;;;;;;;3.90;1.60;;;;;;;9.63;56.25;101803.27;1766342;81;22016;-80
2022/05/18 05:39:37;;;;;;;3.67;1.20;;;;;;;9.69;56.08;101798.81;1766705;81;21860;-81
2022/05/18 05:42:05;;;;;;;2.90;1.40;;;;;;;9.77;55.74;101802.22;1766448;81;21492;-75
2022/05/18 05:44:32;;;;;;;4.17;1.10;;;;;;;9.83;55.67;101792.97;1766686;81;21583;-74
2022/05/18 05:47:03;;;;;;;2.90;1.50;;;;;;;9.89;55.17;101806.88;1758802;81;21000;-84
2022/05/18 05:49:30;;;;;;;4.87;1.60;;;;;;;9.95;55.12;101805.08;1755568;81;21059;-79
2022/05/18 05:51:57;;;;;;;3.70;1.40;;;;;;;10.01;54.90;101802.38;1755565;81;21104;-75
2022/05/18 05:54:26;;;;;;;3.37;1.20;;;;;;;10.09;54.54;101804.02;1755446;81;21055;-80
2022/05/18 05:56:55;;;;;;;5.83;1.60;;;;;;;10.15;54.41;101805.27;1755689;81;21008;-75
2022/05/18 05:59:23;;;;;;;3.97;1.37;;;;;;;10.21;54.24;101815.67;1755569;81;21048;-78
2022/05/18 06:01:50;;;;;;;2.10;1.40;;;;;;;10.27;53.97;101823.03;1754545;81;21039;-78
2022/05/18 06:04:18;;;;;;;6.63;1.67;;;;;;;10.32;53.92;101820.36;1753390;81;21125;-79
2022/05/18 06:06:45;;;;;;;6.00;1.60;;;;;;;10.40;53.85;101818.95;1756655;81;21023;-82
2022/05/18 06:09:13;;;;;;;3.07;1.40;;;;;;;10.47;53.92;101817.55;1755449;81;21043;-82
2022/05/18 06:11:40;;;;;;;3.20;1.50;;;;;;;10.56;53.77;101819.58;1755738;81;21039;-82
2022/05/18 06:14:07;;;;;;;2.63;1.37;;;;;;;10.62;53.54;101819.07;1755534;81;21013;-78
2022/05/18 06:16:34;;;;;;;4.93;1.43;;;;;;;10.69;53.35;101820.70;1755422;81;21286;-81
2022/05/18 06:19:01;;;;;;;2.43;1.30;;;;;;;10.80;53.67;101826.23;1755256;81;21514;-79
2022/05/18 06:21:29;;;;;;;3.83;1.33;;;;;;;10.90;53.37;101833.09;1755062;81;21601;-81
2022/05/18 06:23:56;;;;;;;3.57;1.30;;;;;;;11.01;53.23;101827.67;1756355;81;21064;-78
2022/05/18 06:26:25;;;;;;;4.23;1.40;;;;;;;11.08;52.90;101827.52;1757134;81;21012;-77
2022/05/18 06:28:54;;;;;;;2.58;1.45;;;;;;;11.16;53.06;101829.58;1756048;81;22293;-82
2022/05/18 06:31:21;;;;;;;3.70;1.20;;;;;;;11.28;52.79;101824.59;1756149;81;21013;-81
2022/05/18 06:33:48;;;;;;;3.90;1.20;;;;;;;11.39;52.38;101824.41;1755298;81;21608;-76
2022/05/18 06:36:15;;;;;;;3.93;1.10;;;;;;;11.47;52.09;101832.12;1757281;81;21001;-77
2022/05/18 06:38:42;;;;;;;3.73;1.00;;;;;;;11.55;51.71;101828.46;1751095;81;21342;-77
2022/05/18 06:41:24;;;;;;;2.17;1.17;;;;;;;11.64;51.40;101832.70;1744093;81;21115;-77
2022/05/18 06:43:58;;;;;;;3.37;1.07;;;;;;;11.70;51.12;101832.59;1755060;81;21056;-77
2022/05/18 06:46:27;;;;;;;3.17;1.10;;;;;;;11.77;50.91;101835.95;1749888;81;20993;-77
2022/05/18 06:48:56;;;;;;;4.65;1.47;;;;;;;11.89;51.41;101836.19;1734423;82;28582;-77
2022/05/18 06:51:30;;;;;;;5.37;2.10;;;;;;;12.03;51.00;101834.17;1734583;82;21009;-76
2022/05/18 06:53:58;;;;;;;3.43;1.60;;;;;;;12.13;50.28;101847.98;1734235;82;21803;-76
2022/05/18 06:56:30;;;;;;;3.87;2.80;;;;;;;12.18;49.86;101852.70;1734545;82;21057;-76
2022/05/18 06:58:57;;;;;;;4.70;1.60;;;;;;;12.23;49.55;101853.02;1734130;82;21364;-77
2022/05/18 07:01:26;;;;;;;2.40;1.47;;;;;;;12.26;48.98;101856.04;1734603;82;21037;-79
2022/05/18 07:03:54;;;;;;;4.97;2.53;;;;;;;12.30;48.81;101865.58;1734304;82;21032;-78
2022/05/18 07:06:25;;;;;;;2.80;1.47;;;;;;;12.34;48.70;101858.52;1734447;82;21107;-78
2022/05/18 07:08:54;;;;;;;3.60;1.10;;;;;;;12.42;48.71;101855.27;1734153;82;21112;-78
2022/05/18 07:11:22;;;;;;;2.30;1.45;;;;;;;12.57;48.91;101856.69;1734639;82;20993;-78
2022/05/18 07:13:54;;;;;;;4.07;1.27;;;;;;;12.68;48.48;101858.63;1734444;82;21125;-78
2022/05/18 07:16:23;;;;;;;2.83;1.20;;;;;;;12.75;48.32;101850.14;1734528;82;21013;-78
2022/05/18 07:18:51;;;;;;;2.53;1.37;;;;;;;12.83;48.03;101849.52;1734706;82;21778;-78
2022/05/18 07:21:19;;;;;;;3.43;1.20;;;;;;;12.91;48.12;101848.88;1734622;82;21025;-78
2022/05/18 07:23:47;;;;;;;7.47;1.47;;;;;;;13.09;48.25;101850.23;1734195;82;21515;-78
2022/05/18 07:26:16;;;;;;;4.58;1.30;;;;;;;13.24;47.86;101854.24;1734477;82;21040;-78
2022/05/18 07:28:43;;;;;;;4.22;2.10;;;;;;;13.29;47.51;101856.34;1734242;82;21037;-78
2022/05/18 07:31:11;;;;;;;11.18;1.70;;;;;;;13.31;46.96;101854.09;1734540;82;22090;-78
2022/05/18 07:33:38;;;;;;;6.10;1.80;;;;;;;13.35;46.69;101855.73;1734113;82;21467;-79
2022/05/18 07:36:07;;;;;;;3.27;1.07;;;;;;;13.40;46.39;101855.62;1734402;82;21594;-78
2022/05/18 07:38:35;;;;;;;1.62;1.00;;;;;;;13.43;46.25;101856.86;1734177;82;21056;-78
2022/05/18 07:41:02;;;;;;;7.00;1.65;;;;;;;13.47;46.37;101854.58;1734413;82;21048;-78
2022/05/18 07:43:29;;;;;;;3.50;1.00;;;;;;;13.54;46.13;101858.76;1734275;82;21784;-78
2022/05/18 07:45:57;;;;;;;2.80;1.05;;;;;;;13.58;45.83;101858.25;1734381;82;21101;-78
2022/05/18 07:48:25;;;;;;;2.87;1.07;;;;;;;13.66;46.16;101858.88;1734112;81;21071;-78
2022/05/18 07:50:53;;;;;;;4.17;1.17;;;;;;;13.85;45.92;101863.20;1734442;82;21037;-78
2022/05/18 07:53:20;;;;;;;3.12;1.30;;;;;;;13.94;45.56;101851.11;1734175;82;21060;-78
2022/05/18 07:55:48;;;;;;;4.70;1.40;;;;;;;14.02;45.59;101854.83;1734216;82;21309;-78
2022/05/18 07:58:17;;;;;;;5.47;1.62;;;;;;;14.13;45.20;101861.98;1734058;82;21006;-78
2022/05/18 08:00:46;;;;;;;5.03;1.02;;;;;;;14.24;45.05;101861.67;1734291;82;21009;-78
2022/05/18 08:03:15;;;;;;;2.55;1.00;;;;;;;14.31;44.93;101859.74;1734179;82;21049;-78
2022/05/18 08:05:46;;;;;;;3.30;1.25;;;;;;;14.44;45.27;101864.61;1734268;82;21158;-78
2022/05/18 08:08:18;;;;;;;3.17;1.20;;;;;;;14.53;44.77;101859.55;1734401;82;21130;-78
2022/05/18 08:16:18;;;;;;;8.68;1.25;;;;;;;14.64;43.99;101860.54;1734362;82;21489;-78
2022/05/18 08:18:47;;;;;;;4.03;1.22;;;;;;;14.72;43.72;101855.89;1734424;82;21009;-79
2022/05/18 08:21:14;;;;;;;2.75;1.60;;;;;;;14.80;43.61;101856.52;1734373;82;21111;-78
2022/05/18 08:23:43;;;;;;;4.53;1.20;;;;;;;14.87;43.46;101856.71;1734145;82;21060;-78
2022/05/18 08:26:10;;;;;;;3.60;0.98;;;;;;;14.97;43.42;101859.94;1734168;82;21060;-78
2022/05/18 08:28:37;;;;;;;4.80;1.47;;;;;;;15.06;43.11;101854.34;1734504;82;21112;-78
2022/05/18 08:31:05;;;;;;;2.85;1.00;;;;;;;15.13;42.90;101855.00;1734146;82;21044;-78
2022/05/18 08:33:33;;;;;;;5.95;1.07;;;;;;;15.21;42.56;101860.03;1734419;82;21105;-79
2022/05/18 08:36:04;;;;;;;4.15;0.90;;;;;;;15.29;42.14;101860.65;1734256;82;21506;-78
2022/05/18 08:38:33;;;;;;;3.58;0.90;;;;;;;15.35;41.74;101864.40;1734524;82;20961;-79
2022/05/18 08:41:11;;;;;;;2.05;1.00;;;;;;;15.40;41.43;101854.54;1734392;82;21048;-78
2022/05/18 08:43:44;;;;;;;4.03;1.00;;;;;;;15.48;41.46;101855.61;1734580;82;21494;-78
2022/05/18 08:46:40;;;;;;;2.70;1.20;;;;;;;15.57;41.16;101856.17;1734578;82;21216;-78
2022/05/18 08:49:28;;;;;;;2.62;1.45;;;;;;;15.64;40.70;101854.63;1748017;81;21063;-78
2022/05/18 08:52:29;;;;;;;2.67;1.20;;;;;;;15.71;40.57;101854.40;1766535;81;20987;-78
2022/05/18 08:55:38;;;;;;;4.50;1.10;;;;;;;15.77;40.19;101850.21;1766366;81;21058;-81
2022/05/18 08:58:16;;;;;;;2.12;1.15;;;;;;;15.88;40.01;101855.55;1766345;81;21019;-77
2022/05/18 09:00:54;;;;;;;2.58;1.02;;;;;;;16.05;39.99;101858.47;1766096;81;21127;-77
2022/05/18 09:03:37;;;;;;;1.05;0.82;;;;;;;16.23;39.64;101861.73;1766093;81;21058;-78
2022/05/18 09:06:22;;;;;;;4.15;1.22;;;;;;;16.34;39.46;101860.48;1756238;81;21507;-78
2022/05/18 09:11:50;;;;;;;2.00;0.95;;;;;;;16.60;39.00;101859.03;1766814;81;21679;-78
2022/05/18 09:14:20;;;;;;;2.92;1.05;;;;;;;16.72;38.82;101855.89;1766501;81;21249;-77
2022/05/18 09:16:53;;;;;;;3.17;1.07;;;;;;;16.83;38.55;101848.88;1766688;81;21100;-77
2022/05/18 09:19:41;;;;;;;1.95;0.88;;;;;;;16.93;38.29;101855.98;1765422;81;21497;-77
2022/05/18 09:22:37;;;;;;;3.37;1.25;;;;;;;16.98;38.08;101854.01;1766507;81;21039;-77
2022/05/18 09:25:41;;;;;;;2.00;0.88;;;;;;;17.05;37.86;101843.58;1764474;81;21023;-77
2022/05/18 09:28:49;;;;;;;81.90;7.47;;;;;;;17.24;37.64;101845.00;1765560;81;21116;-77
2022/05/18 09:31:50;;;;;;;2.25;1.00;;;;;;;17.42;37.40;101842.02;1766256;81;21102;-78
2022/05/18 09:34:33;;;;;;;1.85;0.80;;;;;;;17.64;37.24;101841.10;1766419;81;21047;-77
2022/05/18 09:37:28;;;;;;;5.50;1.10;;;;;;;17.80;36.81;101844.84;1732543;81;21106;-77
2022/05/18 09:40:18;;;;;;;5.12;0.93;;;;;;;17.91;36.63;101839.92;1766559;81;20996;-77
2022/05/18 09:42:54;;;;;;;3.77;1.42;;;;;;;18.02;35.98;101842.95;1766556;81;21170;-77
2022/05/18 09:45:25;;;;;;;3.80;1.20;;;;;;;18.11;35.82;101842.98;1765672;81;21066;-77
2022/05/18 09:48:16;;;;;;;4.72;1.10;;;;;;;18.26;35.94;101838.76;1751288;81;21557;-77
2022/05/18 09:50:47;;;;;;;3.40;1.02;;;;;;;18.41;35.53;101832.75;1734378;82;21001;-77
2022/05/18 09:53:16;;;;;;;2.10;1.12;;;;;;;18.58;35.34;101833.27;1734358;82;21076;-77
2022/05/18 09:55:47;;;;;;;3.08;0.80;;;;;;;18.68;35.01;101834.56;1734759;82;21122;-78
2022/05/18 09:58:28;;;;;;;1.95;0.98;;;;;;;18.77;34.77;101838.59;1734213;82;21064;-77
2022/05/18 10:09:51;;;;;;;3.87;0.90;;;;;;;19.65;33.99;101833.73;1734414;82;21149;-77
2022/05/18 10:12:26;;;;;;;1.62;0.72;;;;;;;19.77;33.01;101840.23;1734195;82;21061;-77
2022/05/18 10:15:04;;;;;;;2.05;0.80;;;;;;;19.91;32.70;101833.70;1734370;82;21005;-77
2022/05/18 10:17:37;;;;;;;2.33;1.00;;;;;;;20.17;32.89;101832.28;1734231;82;21053;-77
2022/05/18 10:20:13;;;;;;;2.72;0.80;;;;;;;20.52;32.72;101829.48;1732315;82;21020;-80
2022/05/18 10:22:44;;;;;;;3.75;0.90;;;;;;;20.74;32.35;101826.97;1705681;82;21131;-79
2022/05/18 10:25:28;;;;;;;2.58;0.80;;;;;;;20.93;31.87;101820.48;1734392;82;21041;-79
2022/05/18 10:27:56;;;;;;;2.22;1.05;;;;;;;21.18;31.71;101818.20;1734193;82;21068;-79
2022/05/18 10:30:34;;;;;;;1.67;0.88;;;;;;;21.45;31.49;101810.38;1734518;82;21510;-79
2022/05/18 10:33:07;;;;;;;4.05;0.95;;;;;;;21.68;31.01;101813.00;1732690;82;21076;-79
2022/05/18 10:35:40;;;;;;;3.95;0.88;;;;;;;22.03;31.01;101806.77;1734612;82;21161;-79
2022/05/18 10:38:32;;;;;;;3.80;1.20;;;;;;;22.32;30.44;101810.80;1733389;82;21268;-79
2022/05/18 10:41:13;;;;;;;3.35;1.00;;;;;;;22.51;30.01;101798.45;1727680;82;21009;-79
2022/05/18 10:44:01;;;;;;;1.72;0.90;;;;;;;22.92;30.06;101801.06;1734509;82;21049;-77
2022/05/18 10:46:33;;;;;;;3.52;1.12;;;;;;;23.26;29.30;101796.13;1734637;82;21116;-77
2022/05/18 10:49:33;;;;;;;2.85;0.80;;;;;;;23.41;28.78;101790.20;1757076;81;21150;-77
2022/05/18 10:52:16;;;;;;;3.92;1.22;;;;;;;23.37;28.18;101783.72;1763497;81;21518;-78
2022/05/18 10:55:16;;;;;;;3.17;0.80;;;;;;;23.51;28.06;101787.27;1763364;81;22326;-77
2022/05/18 10:58:05;;;;;;;3.10;1.02;;;;;;;23.61;27.85;101781.63;1763707;81;22000;-77
2022/05/18 11:00:47;;;;;;;2.85;0.85;;;;;;;23.84;27.41;101778.72;1763501;81;21049;-77
2022/05/18 11:03:58;;;;;;;3.62;0.70;;;;;;;23.90;27.41;101777.42;1763597;81;21048;-77
2022/05/18 11:06:39;;;;;;;2.40;0.93;;;;;;;24.17;27.22;101774.09;1763209;81;21329;-79
2022/05/18 11:09:31;;;;;;;1.92;1.05;;;;;;;24.41;26.74;101766.55;1763549;81;20933;-78
2022/05/18 11:12:16;;;;;;;2.12;0.60;;;;;;;24.57;26.44;101764.48;1763215;81;21028;-78
2022/05/18 11:14:51;;;;;;;1.98;0.90;;;;;;;24.63;25.94;101762.67;1763033;81;21005;-78
2022/05/18 11:17:52;;;;;;;2.98;0.60;;;;;;;24.68;25.70;101758.31;1758434;81;21324;-78
2022/05/18 11:20:37;;;;;;;1.75;0.80;;;;;;;24.78;25.91;101759.83;1763412;81;21055;-79
2022/05/18 11:23:18;;;;;;;1.60;0.70;;;;;;;24.91;25.55;101750.73;1762624;81;21114;-76
2022/05/18 11:26:31;;;;;;;2.58;0.80;;;;;;;25.00;25.29;101749.17;1763739;81;21001;-79
2022/05/18 11:29:19;;;;;;;2.70;0.98;;;;;;;25.13;25.21;101750.41;1763577;81;21000;-79
2022/05/18 11:32:15;;;;;;;1.55;0.72;;;;;;;25.19;24.96;101743.74;1726003;81;39151;-77
2022/05/18 11:35:23;;;;;;;2.47;0.90;;;;;;;25.24;24.91;101739.73;1763332;81;21045;-78
2022/05/18 11:38:01;;;;;;;1.25;0.75;;;;;;;25.45;24.63;101732.33;1762241;81;21000;-82
2022/05/18 11:41:05;;;;;;;1.90;0.70;;;;;;;25.50;23.88;101730.14;1763280;81;21056;-78
2022/05/18 11:43:49;;;;;;;1.42;0.57;;;;;;;25.63;23.67;101730.85;1763324;81;21019;-78
2022/05/18 11:46:53;;;;;;;5.65;0.80;;;;;;;25.57;23.08;101720.11;1762295;81;21185;-79
2022/05/18 11:49:35;;;;;;;3.65;0.65;;;;;;;25.59;23.25;101716.83;1763138;81;21577;-75
2022/05/18 11:52:29;;;;;;;2.95;0.53;;;;;;;25.62;23.07;101721.59;1763236;81;21028;-81
2022/05/18 11:55:01;;;;;;;2.33;0.60;;;;;;;25.59;22.23;101715.98;1732078;81;21031;-80
2022/05/18 11:58:26;;;;;;;2.33;0.55;;;;;;;25.67;21.91;101714.03;1747567;82;21054;-85
2022/05/18 12:01:23;;;;;;;3.87;0.60;;;;;;;25.73;21.74;101710.84;1751541;81;21242;-81
2022/05/18 12:04:13;;;;;;;3.42;0.70;;;;;;;25.78;21.71;101709.98;1751318;82;21537;-85
2022/05/18 12:07:01;;;;;;;1.77;0.78;;;;;;;25.71;21.73;101712.79;1722622;83;21031;-81
2022/05/18 12:09:58;;;;;;;3.35;0.80;;;;;;;25.82;21.80;101703.38;1724326;83;21011;-77
2022/05/18 12:12:48;;;;;;;1.47;0.55;;;;;;;26.06;21.98;101705.09;1751111;82;21546;-77
2022/05/18 12:16:01;;;;;;;2.58;0.50;;;;;;;26.03;21.36;101701.66;1747920;81;21069;-77
2022/05/18 12:18:39;;;;;;;2.17;0.60;;;;;;;26.04;21.02;101707.39;1668550;84;21109;-78
2022/05/18 12:21:17;;;;;;;2.47;0.57;;;;;;;25.95;20.52;101706.81;1769653;80;21062;-78
2022/05/18 12:23:50;;;;;;;2.72;0.60;;;;;;;25.85;20.76;101704.50;1789158;80;21066;-78